sensor_id;sensor_type;location;lat;lon;timestamp;pressure;altitude;pressure_sealevel;temperature;humidity
82476;BME280;72099;43.176;76.872;2024-03-22T00:02:09;89488.28;;;6.45;83.35
82476;BME280;72099;43.176;76.872;2024-03-22T00:05:10;89503.31;;;6.48;82.65
82476;BME280;72099;43.176;76.872;2024-03-22T00:08:11;89497.53;;;6.43;83.23
82476;BME280;72099;43.176;76.872;2024-03-22T00:11:12;89515.59;;;6.48;83.08
82476;BME280;72099;43.176;76.872;2024-03-22T00:14:13;89495.97;;;6.30;83.58
82476;BME280;72099;43.176;76.872;2024-03-22T00:17:14;89527.72;;;6.53;83.65
82476;BME280;72099;43.176;76.872;2024-03-22T00:20:14;89530.34;;;6.53;83.67
82476;BME280;72099;43.176;76.872;2024-03-22T00:23:15;89543.19;;;6.58;84.10
82476;BME280;72099;43.176;76.872;2024-03-22T00:26:16;89537.53;;;6.56;83.96
82476;BME280;72099;43.176;76.872;2024-03-22T00:29:17;89543.63;;;6.60;83.55
82476;BME280;72099;43.176;76.872;2024-03-22T00:32:48;89540.25;;;6.59;83.91
82476;BME280;72099;43.176;76.872;2024-03-22T00:35:49;89539.59;;;6.62;83.69
82476;BME280;72099;43.176;76.872;2024-03-22T00:38:49;89538.59;;;6.55;83.84
82476;BME280;72099;43.176;76.872;2024-03-22T00:41:50;89551.22;;;6.53;84.21
82476;BME280;72099;43.176;76.872;2024-03-22T00:44:51;89541.88;;;6.52;83.98
82476;BME280;72099;43.176;76.872;2024-03-22T00:47:52;89543.16;;;6.45;84.41
82476;BME280;72099;43.176;76.872;2024-03-22T00:50:53;89553.16;;;6.43;84.49
82476;BME280;72099;43.176;76.872;2024-03-22T00:53:54;89556.19;;;6.45;84.42
82476;BME280;72099;43.176;76.872;2024-03-22T00:56:55;89562.00;;;6.51;84.65
82476;BME280;72099;43.176;76.872;2024-03-22T00:59:56;89563.38;;;6.48;84.98
82476;BME280;72099;43.176;76.872;2024-03-22T01:02:57;89561.09;;;6.47;84.54
82476;BME280;72099;43.176;76.872;2024-03-22T01:05:57;89562.63;;;6.48;84.87
82476;BME280;72099;43.176;76.872;2024-03-22T01:08:58;89565.25;;;6.48;84.99
82476;BME280;72099;43.176;76.872;2024-03-22T01:11:59;89578.31;;;6.48;84.64
82476;BME280;72099;43.176;76.872;2024-03-22T01:15:00;89576.78;;;6.47;84.88
82476;BME280;72099;43.176;76.872;2024-03-22T01:18:01;89580.91;;;6.48;85.21
82476;BME280;72099;43.176;76.872;2024-03-22T01:21:02;89580.38;;;6.42;85.44
82476;BME280;72099;43.176;76.872;2024-03-22T01:24:03;89590.03;;;6.42;85.17
82476;BME280;72099;43.176;76.872;2024-03-22T01:27:04;89594.94;;;6.43;85.52
82476;BME280;72099;43.176;76.872;2024-03-22T01:30:05;89597.44;;;6.40;85.36
82476;BME280;72099;43.176;76.872;2024-03-22T01:33:06;89597.13;;;6.41;85.19
82476;BME280;72099;43.176;76.872;2024-03-22T01:36:07;89597.63;;;6.35;85.37
82476;BME280;72099;43.176;76.872;2024-03-22T01:39:08;89588.91;;;6.31;85.12
82476;BME280;72099;43.176;76.872;2024-03-22T01:42:09;89590.22;;;6.37;85.08
82476;BME280;72099;43.176;76.872;2024-03-22T01:45:11;89584.25;;;6.36;85.36
82476;BME280;72099;43.176;76.872;2024-03-22T01:48:14;89587.19;;;6.35;85.64
82476;BME280;72099;43.176;76.872;2024-03-22T01:51:16;89582.16;;;6.30;85.61
82476;BME280;72099;43.176;76.872;2024-03-22T01:54:17;89585.75;;;6.25;85.29
82476;BME280;72099;43.176;76.872;2024-03-22T01:57:18;89580.03;;;6.23;85.63
82476;BME280;72099;43.176;76.872;2024-03-22T02:00:19;89581.28;;;6.26;85.66
82476;BME280;72099;43.176;76.872;2024-03-22T02:06:51;89576.34;;;6.24;85.80
82476;BME280;72099;43.176;76.872;2024-03-22T02:09:52;89574.81;;;6.23;85.50
82476;BME280;72099;43.176;76.872;2024-03-22T02:12:53;89579.72;;;6.25;85.50
82476;BME280;72099;43.176;76.872;2024-03-22T02:15:54;89586.50;;;6.26;85.93
82476;BME280;72099;43.176;76.872;2024-03-22T02:18:56;89576.81;;;6.26;85.79
82476;BME280;72099;43.176;76.872;2024-03-22T02:21:56;89585.41;;;6.27;85.18
82476;BME280;72099;43.176;76.872;2024-03-22T02:24:57;89580.31;;;6.30;85.19
82476;BME280;72099;43.176;76.872;2024-03-22T02:27:58;89574.75;;;6.32;85.15
82476;BME280;72099;43.176;76.872;2024-03-22T02:30:59;89571.72;;;6.30;85.22
82476;BME280;72099;43.176;76.872;2024-03-22T02:34:00;89541.03;;;6.06;85.04
82476;BME280;72099;43.176;76.872;2024-03-22T02:37:01;89586.28;;;6.31;84.55
82476;BME280;72099;43.176;76.872;2024-03-22T02:40:03;89589.59;;;6.40;84.83
82476;BME280;72099;43.176;76.872;2024-03-22T02:43:04;89567.47;;;6.25;84.35
82476;BME280;72099;43.176;76.872;2024-03-22T02:46:04;89592.66;;;6.42;84.58
82476;BME280;72099;43.176;76.872;2024-03-22T02:49:05;89601.38;;;6.46;84.60
82476;BME280;72099;43.176;76.872;2024-03-22T02:52:06;89605.84;;;6.45;84.28
82476;BME280;72099;43.176;76.872;2024-03-22T02:55:07;89616.88;;;6.51;84.04
82476;BME280;72099;43.176;76.872;2024-03-22T02:58:08;89613.34;;;6.47;84.44
82476;BME280;72099;43.176;76.872;2024-03-22T03:01:09;89622.09;;;6.51;84.14
82476;BME280;72099;43.176;76.872;2024-03-22T03:04:10;89624.38;;;6.53;84.01
82476;BME280;72099;43.176;76.872;2024-03-22T03:07:11;89621.44;;;6.54;83.51
82476;BME280;72099;43.176;76.872;2024-03-22T03:10:12;89623.75;;;6.56;83.83
82476;BME280;72099;43.176;76.872;2024-03-22T03:13:13;89619.84;;;6.62;83.47
82476;BME280;72099;43.176;76.872;2024-03-22T03:16:13;89605.38;;;6.64;83.42
82476;BME280;72099;43.176;76.872;2024-03-22T03:19:14;89611.72;;;6.75;83.49
82476;BME280;72099;43.176;76.872;2024-03-22T03:22:15;89606.75;;;6.83;82.80
82476;BME280;72099;43.176;76.872;2024-03-22T03:25:16;89623.72;;;6.89;82.21
82476;BME280;72099;43.176;76.872;2024-03-22T03:28:17;89609.28;;;6.91;82.29
82476;BME280;72099;43.176;76.872;2024-03-22T03:31:18;89611.56;;;6.93;81.67
82476;BME280;72099;43.176;76.872;2024-03-22T03:34:19;89602.53;;;6.90;80.27
82476;BME280;72099;43.176;76.872;2024-03-22T03:37:21;89617.00;;;7.00;80.38
82476;BME280;72099;43.176;76.872;2024-03-22T03:40:22;89618.22;;;7.02;79.61
82476;BME280;72099;43.176;76.872;2024-03-22T03:43:25;89620.66;;;7.07;80.15
82476;BME280;72099;43.176;76.872;2024-03-22T03:46:25;89622.16;;;7.08;79.63
82476;BME280;72099;43.176;76.872;2024-03-22T03:49:26;89631.53;;;7.09;79.90
82476;BME280;72099;43.176;76.872;2024-03-22T03:52:27;89632.38;;;7.01;80.41
82476;BME280;72099;43.176;76.872;2024-03-22T03:55:28;89625.88;;;7.07;81.09
82476;BME280;72099;43.176;76.872;2024-03-22T03:58:29;89652.25;;;7.15;80.73
82476;BME280;72099;43.176;76.872;2024-03-22T04:01:30;89653.91;;;7.19;80.67
82476;BME280;72099;43.176;76.872;2024-03-22T04:04:30;89656.63;;;7.23;80.03
82476;BME280;72099;43.176;76.872;2024-03-22T04:07:31;89658.59;;;7.26;80.07
82476;BME280;72099;43.176;76.872;2024-03-22T04:10:33;89666.25;;;7.31;80.16
82476;BME280;72099;43.176;76.872;2024-03-22T04:17:00;89668.66;;;7.36;80.23
82476;BME280;72099;43.176;76.872;2024-03-22T04:20:02;89663.31;;;7.32;80.30
82476;BME280;72099;43.176;76.872;2024-03-22T04:23:25;89661.66;;;7.28;80.42
82476;BME280;72099;43.176;76.872;2024-03-22T04:26:26;89663.59;;;7.19;80.89
82476;BME280;72099;43.176;76.872;2024-03-22T04:29:27;89676.25;;;7.17;81.18
82476;BME280;72099;43.176;76.872;2024-03-22T04:32:27;89660.22;;;7.18;81.92
82476;BME280;72099;43.176;76.872;2024-03-22T04:35:28;89666.34;;;7.22;81.96
82476;BME280;72099;43.176;76.872;2024-03-22T04:38:30;89663.50;;;7.27;81.40
82476;BME280;72099;43.176;76.872;2024-03-22T04:41:31;89665.78;;;7.29;80.39
82476;BME280;72099;43.176;76.872;2024-03-22T04:44:32;89662.88;;;7.30;79.98
82476;BME280;72099;43.176;76.872;2024-03-22T04:47:32;89660.81;;;7.36;80.32
82476;BME280;72099;43.176;76.872;2024-03-22T04:50:33;89656.13;;;7.42;80.12
82476;BME280;72099;43.176;76.872;2024-03-22T04:54:01;89656.88;;;7.42;79.99
82476;BME280;72099;43.176;76.872;2024-03-22T04:57:02;89658.28;;;7.39;78.82
82476;BME280;72099;43.176;76.872;2024-03-22T05:00:03;89664.72;;;7.42;79.21
82476;BME280;72099;43.176;76.872;2024-03-22T05:03:06;89656.88;;;7.42;76.71
82476;BME280;72099;43.176;76.872;2024-03-22T05:06:07;89668.47;;;7.53;75.44
82476;BME280;72099;43.176;76.872;2024-03-22T05:09:08;89663.22;;;7.53;75.58
82476;BME280;72099;43.176;76.872;2024-03-22T05:12:10;89672.50;;;7.63;74.53
82476;BME280;72099;43.176;76.872;2024-03-22T05:15:11;89678.31;;;7.68;74.22
82476;BME280;72099;43.176;76.872;2024-03-22T05:18:12;89681.03;;;7.72;73.38
82476;BME280;72099;43.176;76.872;2024-03-22T05:21:13;89687.91;;;7.77;72.76
82476;BME280;72099;43.176;76.872;2024-03-22T05:24:13;89698.81;;;7.79;72.20
82476;BME280;72099;43.176;76.872;2024-03-22T05:27:14;89692.81;;;7.78;71.54
82476;BME280;72099;43.176;76.872;2024-03-22T05:30:15;89698.69;;;7.75;71.52
82476;BME280;72099;43.176;76.872;2024-03-22T05:33:16;89697.19;;;7.74;71.24
82476;BME280;72099;43.176;76.872;2024-03-22T05:36:17;89702.31;;;7.71;70.79
82476;BME280;72099;43.176;76.872;2024-03-22T05:39:17;89698.16;;;7.69;71.34
82476;BME280;72099;43.176;76.872;2024-03-22T05:42:18;89700.00;;;7.69;71.32
82476;BME280;72099;43.176;76.872;2024-03-22T05:45:19;89691.84;;;7.71;70.93
82476;BME280;72099;43.176;76.872;2024-03-22T05:48:20;89695.75;;;7.77;71.33
82476;BME280;72099;43.176;76.872;2024-03-22T05:51:21;89693.91;;;7.77;72.36
82476;BME280;72099;43.176;76.872;2024-03-22T05:54:22;89695.44;;;7.78;73.03
82476;BME280;72099;43.176;76.872;2024-03-22T05:57:22;89697.72;;;7.80;73.33
82476;BME280;72099;43.176;76.872;2024-03-22T06:00:24;89697.72;;;7.80;73.56
82476;BME280;72099;43.176;76.872;2024-03-22T06:03:25;89699.91;;;7.78;74.43
82476;BME280;72099;43.176;76.872;2024-03-22T06:06:26;89704.81;;;7.79;73.63
82476;BME280;72099;43.176;76.872;2024-03-22T06:09:27;89704.38;;;7.77;74.39
82476;BME280;72099;43.176;76.872;2024-03-22T06:13:10;89712.34;;;7.68;74.30
82476;BME280;72099;43.176;76.872;2024-03-22T06:16:11;89705.13;;;7.65;74.64
82476;BME280;72099;43.176;76.872;2024-03-22T06:19:12;89712.97;;;7.65;74.32
82476;BME280;72099;43.176;76.872;2024-03-22T06:22:12;89718.63;;;7.67;74.70
82476;BME280;72099;43.176;76.872;2024-03-22T06:25:13;89715.47;;;7.62;74.44
82476;BME280;72099;43.176;76.872;2024-03-22T06:28:14;89723.66;;;7.60;74.88
82476;BME280;72099;43.176;76.872;2024-03-22T06:31:15;89728.91;;;7.60;75.68
82476;BME280;72099;43.176;76.872;2024-03-22T06:34:16;89729.00;;;7.64;75.48
82476;BME280;72099;43.176;76.872;2024-03-22T06:37:17;89725.72;;;7.67;75.10
82476;BME280;72099;43.176;76.872;2024-03-22T06:40:17;89729.38;;;7.87;75.82
82476;BME280;72099;43.176;76.872;2024-03-22T06:43:46;89738.78;;;8.00;76.26
82476;BME280;72099;43.176;76.872;2024-03-22T06:46:47;89734.63;;;8.11;76.55
82476;BME280;72099;43.176;76.872;2024-03-22T06:49:48;89729.06;;;8.13;77.02
82476;BME280;72099;43.176;76.872;2024-03-22T06:52:49;89741.59;;;8.07;76.84
82476;BME280;72099;43.176;76.872;2024-03-22T06:55:50;89748.59;;;8.03;77.02
82476;BME280;72099;43.176;76.872;2024-03-22T06:58:51;89742.91;;;8.01;77.57
82476;BME280;72099;43.176;76.872;2024-03-22T07:01:52;89748.16;;;8.13;77.51
82476;BME280;72099;43.176;76.872;2024-03-22T07:04:53;89738.88;;;8.16;77.72
82476;BME280;72099;43.176;76.872;2024-03-22T07:07:54;89742.59;;;8.15;78.27
82476;BME280;72099;43.176;76.872;2024-03-22T07:10:56;89742.06;;;8.21;78.78
82476;BME280;72099;43.176;76.872;2024-03-22T07:13:57;89750.03;;;8.25;78.47
82476;BME280;72099;43.176;76.872;2024-03-22T07:16:58;89748.09;;;8.34;78.28
82476;BME280;72099;43.176;76.872;2024-03-22T07:19:59;89749.81;;;8.30;78.53
82476;BME280;72099;43.176;76.872;2024-03-22T07:23:00;89750.13;;;8.28;78.10
82476;BME280;72099;43.176;76.872;2024-03-22T07:26:00;89747.19;;;8.30;78.46
82476;BME280;72099;43.176;76.872;2024-03-22T07:29:01;89743.81;;;8.42;78.86
82476;BME280;72099;43.176;76.872;2024-03-22T07:32:03;89738.69;;;8.57;78.95
82476;BME280;72099;43.176;76.872;2024-03-22T07:35:04;89751.03;;;8.57;78.17
82476;BME280;72099;43.176;76.872;2024-03-22T07:38:05;89739.25;;;8.51;78.01
82476;BME280;72099;43.176;76.872;2024-03-22T07:41:05;89742.53;;;8.48;78.53
82476;BME280;72099;43.176;76.872;2024-03-22T07:44:06;89733.00;;;8.43;78.44
82476;BME280;72099;43.176;76.872;2024-03-22T07:47:07;89734.34;;;8.49;78.42
82476;BME280;72099;43.176;76.872;2024-03-22T07:50:08;89728.78;;;8.39;78.05
82476;BME280;72099;43.176;76.872;2024-03-22T07:53:09;89738.69;;;8.45;78.15
82476;BME280;72099;43.176;76.872;2024-03-22T07:56:10;89734.09;;;8.42;78.04
82476;BME280;72099;43.176;76.872;2024-03-22T07:59:12;89737.38;;;8.39;77.74
82476;BME280;72099;43.176;76.872;2024-03-22T08:02:13;89722.19;;;8.20;77.39
82476;BME280;72099;43.176;76.872;2024-03-22T08:05:14;89720.97;;;8.30;77.40
82476;BME280;72099;43.176;76.872;2024-03-22T08:08:15;89737.06;;;8.41;77.26
82476;BME280;72099;43.176;76.872;2024-03-22T08:11:16;89738.69;;;8.45;77.05
82476;BME280;72099;43.176;76.872;2024-03-22T08:14:16;89731.47;;;8.54;76.89
82476;BME280;72099;43.176;76.872;2024-03-22T08:17:17;89732.78;;;8.61;76.90
82476;BME280;72099;43.176;76.872;2024-03-22T08:20:18;89741.84;;;8.63;76.74
82476;BME280;72099;43.176;76.872;2024-03-22T08:26:46;89734.41;;;8.77;76.62
82476;BME280;72099;43.176;76.872;2024-03-22T08:29:47;89728.91;;;8.82;76.86
82476;BME280;72099;43.176;76.872;2024-03-22T08:32:48;89727.38;;;8.81;76.68
82476;BME280;72099;43.176;76.872;2024-03-22T08:35:49;89721.84;;;8.71;76.07
82476;BME280;72099;43.176;76.872;2024-03-22T08:38:50;89717.50;;;8.63;75.46
82476;BME280;72099;43.176;76.872;2024-03-22T08:41:51;89715.84;;;8.46;75.74
82476;BME280;72099;43.176;76.872;2024-03-22T08:44:52;89720.56;;;8.40;75.58
82476;BME280;72099;43.176;76.872;2024-03-22T08:47:53;89717.94;;;8.52;76.35
82476;BME280;72099;43.176;76.872;2024-03-22T08:50:54;89724.34;;;8.67;76.34
82476;BME280;72099;43.176;76.872;2024-03-22T08:53:55;89716.47;;;8.79;76.42
82476;BME280;72099;43.176;76.872;2024-03-22T08:56:56;89717.44;;;8.87;76.15
82476;BME280;72099;43.176;76.872;2024-03-22T08:59:57;89719.84;;;8.80;75.54
82476;BME280;72099;43.176;76.872;2024-03-22T09:02:58;89713.00;;;8.75;74.99
82476;BME280;72099;43.176;76.872;2024-03-22T09:05:59;89722.34;;;8.89;75.26
82476;BME280;72099;43.176;76.872;2024-03-22T09:09:00;89706.38;;;8.94;74.80
82476;BME280;72099;43.176;76.872;2024-03-22T09:12:00;89707.38;;;8.89;74.86
82476;BME280;72099;43.176;76.872;2024-03-22T09:15:01;89707.56;;;8.96;75.29
82476;BME280;72099;43.176;76.872;2024-03-22T09:18:02;89701.22;;;8.97;74.91
82476;BME280;72099;43.176;76.872;2024-03-22T09:21:03;89703.75;;;8.94;74.95
82476;BME280;72099;43.176;76.872;2024-03-22T09:24:04;89710.19;;;8.96;75.14
82476;BME280;72099;43.176;76.872;2024-03-22T09:27:05;89704.09;;;8.92;74.74
82476;BME280;72099;43.176;76.872;2024-03-22T09:30:09;89704.00;;;8.89;75.01
82476;BME280;72099;43.176;76.872;2024-03-22T09:33:42;89705.00;;;8.72;75.24
82476;BME280;72099;43.176;76.872;2024-03-22T09:36:44;89702.44;;;8.47;75.51
82476;BME280;72099;43.176;76.872;2024-03-22T09:39:45;89695.78;;;8.38;75.95
82476;BME280;72099;43.176;76.872;2024-03-22T09:42:47;89697.72;;;8.28;76.13
82476;BME280;72099;43.176;76.872;2024-03-22T09:45:49;89707.47;;;8.40;75.86
82476;BME280;72099;43.176;76.872;2024-03-22T09:48:52;89704.81;;;8.28;76.02
82476;BME280;72099;43.176;76.872;2024-03-22T09:51:54;89711.25;;;8.18;76.03
82476;BME280;72099;43.176;76.872;2024-03-22T09:54:55;89705.59;;;8.16;77.09
82476;BME280;72099;43.176;76.872;2024-03-22T09:57:56;89712.19;;;8.35;77.59
82476;BME280;72099;43.176;76.872;2024-03-22T10:00:57;89708.56;;;8.39;76.81
82476;BME280;72099;43.176;76.872;2024-03-22T10:04:01;89699.25;;;8.54;77.24
82476;BME280;72099;43.176;76.872;2024-03-22T10:07:05;89698.13;;;8.67;76.89
82476;BME280;72099;43.176;76.872;2024-03-22T10:10:06;89685.34;;;8.78;77.22
82476;BME280;72099;43.176;76.872;2024-03-22T10:13:08;89702.53;;;9.03;76.87
82476;BME280;72099;43.176;76.872;2024-03-22T10:16:09;89707.44;;;9.05;76.32
82476;BME280;72099;43.176;76.872;2024-03-22T10:19:10;89705.63;;;9.21;75.65
82476;BME280;72099;43.176;76.872;2024-03-22T10:22:11;89691.47;;;9.38;75.16
82476;BME280;72099;43.176;76.872;2024-03-22T10:25:12;89696.88;;;9.45;74.66
82476;BME280;72099;43.176;76.872;2024-03-22T10:28:13;89692.31;;;9.42;74.30
82476;BME280;72099;43.176;76.872;2024-03-22T10:31:14;89694.94;;;9.42;73.75
82476;BME280;72099;43.176;76.872;2024-03-22T10:34:16;89692.72;;;9.44;73.40
82476;BME280;72099;43.176;76.872;2024-03-22T10:37:18;89697.03;;;9.36;72.96
82476;BME280;72099;43.176;76.872;2024-03-22T10:40:20;89691.31;;;9.19;72.80
82476;BME280;72099;43.176;76.872;2024-03-22T10:46:48;89700.28;;;9.18;72.33
82476;BME280;72099;43.176;76.872;2024-03-22T10:49:50;89705.19;;;9.19;72.26
82476;BME280;72099;43.176;76.872;2024-03-22T10:52:56;89703.16;;;9.12;72.23
82476;BME280;72099;43.176;76.872;2024-03-22T10:55:59;89699.22;;;9.06;71.86
82476;BME280;72099;43.176;76.872;2024-03-22T10:59:04;89707.34;;;9.01;71.91
82476;BME280;72099;43.176;76.872;2024-03-22T11:02:05;89705.63;;;8.93;71.97
82476;BME280;72099;43.176;76.872;2024-03-22T11:05:18;89708.06;;;8.86;71.92
82476;BME280;72099;43.176;76.872;2024-03-22T11:08:27;89711.66;;;8.81;72.31
82476;BME280;72099;43.176;76.872;2024-03-22T11:11:28;89713.84;;;8.79;72.55
82476;BME280;72099;43.176;76.872;2024-03-22T11:14:31;89720.19;;;8.78;72.25
82476;BME280;72099;43.176;76.872;2024-03-22T11:17:32;89734.06;;;8.79;72.29
82476;BME280;72099;43.176;76.872;2024-03-22T11:20:36;89723.81;;;8.74;71.82
82476;BME280;72099;43.176;76.872;2024-03-22T11:23:37;89727.53;;;8.73;71.34
82476;BME280;72099;43.176;76.872;2024-03-22T11:26:38;89730.03;;;8.69;71.69
82476;BME280;72099;43.176;76.872;2024-03-22T11:29:39;89729.28;;;8.69;71.75
82476;BME280;72099;43.176;76.872;2024-03-22T11:32:42;89722.41;;;8.64;71.95
82476;BME280;72099;43.176;76.872;2024-03-22T11:35:45;89722.63;;;8.59;72.75
82476;BME280;72099;43.176;76.872;2024-03-22T11:38:47;89720.63;;;8.68;73.17
82476;BME280;72099;43.176;76.872;2024-03-22T11:41:53;89725.78;;;8.65;73.79
82476;BME280;72099;43.176;76.872;2024-03-22T11:44:54;89736.38;;;8.56;74.24
82476;BME280;72099;43.176;76.872;2024-03-22T11:47:55;89734.84;;;8.55;74.30
82476;BME280;72099;43.176;76.872;2024-03-22T11:50:56;89733.09;;;8.59;74.26
82476;BME280;72099;43.176;76.872;2024-03-22T11:53:57;89728.84;;;8.67;73.97
82476;BME280;72099;43.176;76.872;2024-03-22T11:56:58;89738.13;;;8.64;73.60
82476;BME280;72099;43.176;76.872;2024-03-22T12:00:00;89740.84;;;8.68;73.18
82476;BME280;72099;43.176;76.872;2024-03-22T12:03:06;89741.84;;;8.75;73.48
82476;BME280;72099;43.176;76.872;2024-03-22T12:06:09;89749.47;;;8.80;72.96
82476;BME280;72099;43.176;76.872;2024-03-22T12:09:13;89746.75;;;8.77;73.02
82476;BME280;72099;43.176;76.872;2024-03-22T12:12:14;89752.75;;;8.77;72.93
82476;BME280;72099;43.176;76.872;2024-03-22T12:15:15;89760.72;;;8.81;73.05
82476;BME280;72099;43.176;76.872;2024-03-22T12:18:16;89766.06;;;8.84;72.89
82476;BME280;72099;43.176;76.872;2024-03-22T12:21:17;89771.22;;;8.81;72.82
82476;BME280;72099;43.176;76.872;2024-03-22T12:24:17;89776.44;;;8.81;73.77
82476;BME280;72099;43.176;76.872;2024-03-22T12:27:18;89778.75;;;8.82;73.39
82476;BME280;72099;43.176;76.872;2024-03-22T12:30:19;89775.25;;;8.78;73.32
82476;BME280;72099;43.176;76.872;2024-03-22T12:33:49;89782.03;;;8.79;73.69
82476;BME280;72099;43.176;76.872;2024-03-22T12:36:50;89771.22;;;8.81;74.20
82476;BME280;72099;43.176;76.872;2024-03-22T12:39:52;89781.16;;;8.75;74.43
82476;BME280;72099;43.176;76.872;2024-03-22T12:42:52;89784.88;;;8.74;74.76
82476;BME280;72099;43.176;76.872;2024-03-22T12:45:53;89786.53;;;8.54;74.56
82476;BME280;72099;43.176;76.872;2024-03-22T12:48:54;89785.22;;;8.36;75.19
82476;BME280;72099;43.176;76.872;2024-03-22T12:51:55;89796.97;;;8.30;75.66
82476;BME280;72099;43.176;76.872;2024-03-22T12:54:57;89806.56;;;8.14;75.96
82476;BME280;72099;43.176;76.872;2024-03-22T12:57:58;89799.34;;;8.11;77.04
82476;BME280;72099;43.176;76.872;2024-03-22T13:00:59;89805.34;;;7.99;76.91
82476;BME280;72099;43.176;76.872;2024-03-22T13:04:01;89817.56;;;7.95;77.59
82476;BME280;72099;43.176;76.872;2024-03-22T13:07:02;89818.75;;;7.97;77.57
82476;BME280;72099;43.176;76.872;2024-03-22T13:10:03;89824.88;;;8.02;77.75
82476;BME280;72099;43.176;76.872;2024-03-22T13:13:04;89815.38;;;7.97;77.88
82476;BME280;72099;43.176;76.872;2024-03-22T13:16:05;89821.16;;;8.03;78.79
82476;BME280;72099;43.176;76.872;2024-03-22T13:19:07;89842.75;;;7.99;78.47
82476;BME280;72099;43.176;76.872;2024-03-22T13:22:14;89845.28;;;7.96;78.81
82476;BME280;72099;43.176;76.872;2024-03-22T13:25:18;89848.66;;;7.96;79.07
82476;BME280;72099;43.176;76.872;2024-03-22T13:28:19;89847.41;;;7.82;78.99
82476;BME280;72099;43.176;76.872;2024-03-22T13:31:22;89844.47;;;7.83;79.17
82476;BME280;72099;43.176;76.872;2024-03-22T13:34:23;89858.22;;;7.92;79.03
82476;BME280;72099;43.176;76.872;2024-03-22T13:37:24;89836.47;;;7.80;78.80
82476;BME280;72099;43.176;76.872;2024-03-22T13:40:25;89865.69;;;8.03;79.29
82476;BME280;72099;43.176;76.872;2024-03-22T13:43:28;89860.66;;;7.97;78.92
82476;BME280;72099;43.176;76.872;2024-03-22T13:46:29;89871.34;;;8.05;79.50
82476;BME280;72099;43.176;76.872;2024-03-22T13:49:30;89875.66;;;8.09;79.32
82476;BME280;72099;43.176;76.872;2024-03-22T13:52:31;89882.75;;;8.09;79.22
82476;BME280;72099;43.176;76.872;2024-03-22T13:55:32;89887.28;;;7.99;78.87
82476;BME280;72099;43.176;76.872;2024-03-22T13:58:33;89890.88;;;7.95;78.36
82476;BME280;72099;43.176;76.872;2024-03-22T14:01:37;89897.19;;;7.94;78.62
82476;BME280;72099;43.176;76.872;2024-03-22T14:04:38;89894.97;;;7.84;78.68
82476;BME280;72099;43.176;76.872;2024-03-22T14:07:39;89895.31;;;7.82;79.18
82476;BME280;72099;43.176;76.872;2024-03-22T14:10:41;89903.16;;;7.82;78.93
82476;BME280;72099;43.176;76.872;2024-03-22T14:13:42;89901.38;;;7.74;79.45
82476;BME280;72099;43.176;76.872;2024-03-22T14:16:43;89908.97;;;7.67;78.73
82476;BME280;72099;43.176;76.872;2024-03-22T14:19:44;89906.88;;;7.60;78.69
82476;BME280;72099;43.176;76.872;2024-03-22T14:22:46;89903.97;;;7.53;78.73
82476;BME280;72099;43.176;76.872;2024-03-22T14:25:48;89901.22;;;7.29;79.20
82476;BME280;72099;43.176;76.872;2024-03-22T14:28:49;89913.28;;;7.21;80.13
82476;BME280;72099;43.176;76.872;2024-03-22T14:35:20;89919.91;;;6.89;80.45
82476;BME280;72099;43.176;76.872;2024-03-22T14:38:22;89929.16;;;6.87;81.01
82476;BME280;72099;43.176;76.872;2024-03-22T14:41:23;89936.41;;;6.81;81.03
82476;BME280;72099;43.176;76.872;2024-03-22T14:44:24;89914.97;;;6.67;81.34
82476;BME280;72099;43.176;76.872;2024-03-22T14:47:25;89945.22;;;6.68;80.78
82476;BME280;72099;43.176;76.872;2024-03-22T14:50:26;89950.16;;;6.61;81.29
82476;BME280;72099;43.176;76.872;2024-03-22T14:53:56;89953.09;;;6.59;82.04
82476;BME280;72099;43.176;76.872;2024-03-22T14:56:57;89966.13;;;6.68;81.95
82476;BME280;72099;43.176;76.872;2024-03-22T14:59:58;89948.38;;;6.44;81.47
82476;BME280;72099;43.176;76.872;2024-03-22T15:02:59;89982.16;;;6.58;81.39
82476;BME280;72099;43.176;76.872;2024-03-22T15:06:00;89976.63;;;6.59;81.31
82476;BME280;72099;43.176;76.872;2024-03-22T15:09:01;89985.53;;;6.49;81.06
82476;BME280;72099;43.176;76.872;2024-03-22T15:12:09;89990.50;;;6.34;80.93
82476;BME280;72099;43.176;76.872;2024-03-22T15:15:10;89995.75;;;6.16;80.95
82476;BME280;72099;43.176;76.872;2024-03-22T15:18:11;89993.44;;;5.98;81.28
82476;BME280;72099;43.176;76.872;2024-03-22T15:21:11;89999.28;;;5.86;81.11
82476;BME280;72099;43.176;76.872;2024-03-22T15:24:12;90001.72;;;5.74;80.94
82476;BME280;72099;43.176;76.872;2024-03-22T15:27:13;90007.38;;;5.67;81.02
82476;BME280;72099;43.176;76.872;2024-03-22T15:30:15;90014.28;;;5.54;80.80
82476;BME280;72099;43.176;76.872;2024-03-22T15:33:17;90007.66;;;5.40;80.91
82476;BME280;72099;43.176;76.872;2024-03-22T15:36:18;89995.94;;;5.11;80.66
82476;BME280;72099;43.176;76.872;2024-03-22T15:39:18;90019.34;;;5.02;80.15
82476;BME280;72099;43.176;76.872;2024-03-22T15:45:50;90023.53;;;4.72;80.59
82476;BME280;72099;43.176;76.872;2024-03-22T15:48:51;90028.59;;;4.69;80.97
82476;BME280;72099;43.176;76.872;2024-03-22T15:51:52;90028.41;;;4.65;81.03
82476;BME280;72099;43.176;76.872;2024-03-22T15:54:53;90027.28;;;4.58;81.36
82476;BME280;72099;43.176;76.872;2024-03-22T15:57:55;90022.38;;;4.56;81.01
82476;BME280;72099;43.176;76.872;2024-03-22T16:00:56;90035.22;;;4.53;81.37
82476;BME280;72099;43.176;76.872;2024-03-22T16:03:57;90038.56;;;4.44;80.89
82476;BME280;72099;43.176;76.872;2024-03-22T16:06:59;90032.69;;;4.39;81.36
82476;BME280;72099;43.176;76.872;2024-03-22T16:10:00;90038.03;;;4.34;81.05
82476;BME280;72099;43.176;76.872;2024-03-22T16:16:36;90034.75;;;4.28;81.27
82476;BME280;72099;43.176;76.872;2024-03-22T16:19:37;90031.81;;;4.21;81.21
82476;BME280;72099;43.176;76.872;2024-03-22T16:23:09;90039.50;;;4.26;81.30
82476;BME280;72099;43.176;76.872;2024-03-22T16:26:10;90031.28;;;4.33;82.03
82476;BME280;72099;43.176;76.872;2024-03-22T16:29:11;90033.75;;;4.38;81.68